Airport Name : Campo Grande

Other Name : Campo Grande

ICAO : SBCG

IATA : CGR

FAA :

Latitude : -20.468667

Longitude : -54.6725

Country : Brazil

Local Date and Time : 7/18/2018 5:57:00 PM

 

TAF (Terminal Aerodrome Forecast)

 

METAR (METeorological Aerodrome Report)

SBCG 182100Z 33005KT CAVOK 29/10 Q1015

SBCG 182000Z 33008KT CAVOK 31/09 Q1014

SBCG 181900Z 30009KT CAVOK 31/10 Q1015

SBCG 181800Z 32009KT 290V360 CAVOK 32/10 Q1015